sensor_id;sensor_type;location;lat;lon;timestamp;P1;durP1;ratioP1;P2;durP2;ratioP2
16531;SDS011;66872;63.142;14.482;2024-01-11T00:02:13;0.10;;;0.10;;
16531;SDS011;66872;63.142;14.482;2024-01-11T00:04:39;0.33;;;0.33;;
16531;SDS011;66872;63.142;14.482;2024-01-11T00:07:05;0.20;;;0.20;;
16531;SDS011;66872;63.142;14.482;2024-01-11T00:09:31;0.20;;;0.20;;
16531;SDS011;66872;63.142;14.482;2024-01-11T00:11:56;0.10;;;0.10;;
16531;SDS011;66872;63.142;14.482;2024-01-11T00:14:22;0.10;;;0.10;;
16531;SDS011;66872;63.142;14.482;2024-01-11T00:16:48;0.20;;;0.20;;
16531;SDS011;66872;63.142;14.482;2024-01-11T00:19:13;0.30;;;0.30;;
16531;SDS011;66872;63.142;14.482;2024-01-11T00:21:39;0.20;;;0.20;;
16531;SDS011;66872;63.142;14.482;2024-01-11T00:24:04;0.20;;;0.20;;
16531;SDS011;66872;63.142;14.482;2024-01-11T00:26:30;0.20;;;0.20;;
16531;SDS011;66872;63.142;14.482;2024-01-11T00:28:56;0.30;;;0.30;;
16531;SDS011;66872;63.142;14.482;2024-01-11T00:31:22;0.30;;;0.30;;
16531;SDS011;66872;63.142;14.482;2024-01-11T00:33:47;0.30;;;0.30;;
16531;SDS011;66872;63.142;14.482;2024-01-11T00:36:19;0.47;;;0.40;;
16531;SDS011;66872;63.142;14.482;2024-01-11T00:38:45;0.20;;;0.20;;
16531;SDS011;66872;63.142;14.482;2024-01-11T00:41:11;0.10;;;0.10;;
16531;SDS011;66872;63.142;14.482;2024-01-11T00:43:37;0.20;;;0.20;;
16531;SDS011;66872;63.142;14.482;2024-01-11T00:46:02;0.20;;;0.20;;
16531;SDS011;66872;63.142;14.482;2024-01-11T00:48:28;0.30;;;0.30;;
16531;SDS011;66872;63.142;14.482;2024-01-11T00:50:54;0.20;;;0.20;;
16531;SDS011;66872;63.142;14.482;2024-01-11T00:53:19;0.27;;;0.27;;
16531;SDS011;66872;63.142;14.482;2024-01-11T00:55:45;0.20;;;0.20;;
16531;SDS011;66872;63.142;14.482;2024-01-11T00:58:11;0.20;;;0.20;;
16531;SDS011;66872;63.142;14.482;2024-01-11T01:00:36;0.20;;;0.20;;
16531;SDS011;66872;63.142;14.482;2024-01-11T01:03:02;0.23;;;0.23;;
16531;SDS011;66872;63.142;14.482;2024-01-11T01:05:28;0.10;;;0.10;;
16531;SDS011;66872;63.142;14.482;2024-01-11T01:07:53;0.30;;;0.30;;
16531;SDS011;66872;63.142;14.482;2024-01-11T01:10:19;0.20;;;0.20;;
16531;SDS011;66872;63.142;14.482;2024-01-11T01:12:45;0.20;;;0.20;;
16531;SDS011;66872;63.142;14.482;2024-01-11T01:15:10;0.30;;;0.30;;
16531;SDS011;66872;63.142;14.482;2024-01-11T01:17:37;0.30;;;0.30;;
16531;SDS011;66872;63.142;14.482;2024-01-11T01:20:02;0.27;;;0.27;;
16531;SDS011;66872;63.142;14.482;2024-01-11T01:22:28;0.10;;;0.10;;
16531;SDS011;66872;63.142;14.482;2024-01-11T01:24:54;0.10;;;0.10;;
16531;SDS011;66872;63.142;14.482;2024-01-11T01:27:20;0.20;;;0.20;;
16531;SDS011;66872;63.142;14.482;2024-01-11T01:29:45;0.40;;;0.40;;
16531;SDS011;66872;63.142;14.482;2024-01-11T01:32:11;0.33;;;0.33;;
16531;SDS011;66872;63.142;14.482;2024-01-11T01:34:37;0.20;;;0.20;;
16531;SDS011;66872;63.142;14.482;2024-01-11T01:37:02;0.30;;;0.30;;
16531;SDS011;66872;63.142;14.482;2024-01-11T01:39:28;0.30;;;0.30;;
16531;SDS011;66872;63.142;14.482;2024-01-11T01:41:54;0.30;;;0.30;;
16531;SDS011;66872;63.142;14.482;2024-01-11T01:44:19;0.30;;;0.30;;
16531;SDS011;66872;63.142;14.482;2024-01-11T01:46:45;0.40;;;0.40;;
16531;SDS011;66872;63.142;14.482;2024-01-11T01:49:12;0.20;;;0.20;;
16531;SDS011;66872;63.142;14.482;2024-01-11T01:51:38;0.20;;;0.20;;
16531;SDS011;66872;63.142;14.482;2024-01-11T01:54:04;0.20;;;0.20;;
16531;SDS011;66872;63.142;14.482;2024-01-11T01:56:30;0.30;;;0.30;;
16531;SDS011;66872;63.142;14.482;2024-01-11T01:58:56;0.40;;;0.40;;
16531;SDS011;66872;63.142;14.482;2024-01-11T02:01:23;0.20;;;0.20;;
16531;SDS011;66872;63.142;14.482;2024-01-11T02:03:52;0.50;;;0.30;;
16531;SDS011;66872;63.142;14.482;2024-01-11T02:06:21;0.10;;;0.10;;
16531;SDS011;66872;63.142;14.482;2024-01-11T02:08:51;0.30;;;0.27;;
16531;SDS011;66872;63.142;14.482;2024-01-11T02:11:20;0.30;;;0.30;;
16531;SDS011;66872;63.142;14.482;2024-01-11T02:13:48;0.30;;;0.20;;
16531;SDS011;66872;63.142;14.482;2024-01-11T02:16:15;0.20;;;0.20;;
16531;SDS011;66872;63.142;14.482;2024-01-11T02:18:40;0.20;;;0.20;;
16531;SDS011;66872;63.142;14.482;2024-01-11T02:21:06;0.20;;;0.20;;
16531;SDS011;66872;63.142;14.482;2024-01-11T02:23:36;0.20;;;0.20;;
16531;SDS011;66872;63.142;14.482;2024-01-11T02:26:10;0.23;;;0.23;;
16531;SDS011;66872;63.142;14.482;2024-01-11T02:28:37;0.20;;;0.20;;
16531;SDS011;66872;63.142;14.482;2024-01-11T02:31:02;0.10;;;0.10;;
16531;SDS011;66872;63.142;14.482;2024-01-11T02:33:28;0.10;;;0.10;;
16531;SDS011;66872;63.142;14.482;2024-01-11T02:35:54;0.50;;;0.40;;
16531;SDS011;66872;63.142;14.482;2024-01-11T02:38:20;0.30;;;0.30;;
16531;SDS011;66872;63.142;14.482;2024-01-11T02:40:46;0.20;;;0.20;;
16531;SDS011;66872;63.142;14.482;2024-01-11T02:43:13;0.20;;;0.20;;
16531;SDS011;66872;63.142;14.482;2024-01-11T02:45:38;0.40;;;0.40;;
16531;SDS011;66872;63.142;14.482;2024-01-11T02:48:04;0.27;;;0.27;;
16531;SDS011;66872;63.142;14.482;2024-01-11T02:50:30;0.40;;;0.30;;
16531;SDS011;66872;63.142;14.482;2024-01-11T02:52:56;0.20;;;0.20;;
16531;SDS011;66872;63.142;14.482;2024-01-11T02:55:21;0.10;;;0.10;;
16531;SDS011;66872;63.142;14.482;2024-01-11T02:57:47;0.13;;;0.13;;
16531;SDS011;66872;63.142;14.482;2024-01-11T03:00:12;0.20;;;0.20;;
16531;SDS011;66872;63.142;14.482;2024-01-11T03:02:38;0.33;;;0.27;;
16531;SDS011;66872;63.142;14.482;2024-01-11T03:05:04;0.10;;;0.10;;
16531;SDS011;66872;63.142;14.482;2024-01-11T03:07:30;0.30;;;0.30;;
16531;SDS011;66872;63.142;14.482;2024-01-11T03:09:55;0.20;;;0.20;;
16531;SDS011;66872;63.142;14.482;2024-01-11T03:12:21;0.20;;;0.20;;
16531;SDS011;66872;63.142;14.482;2024-01-11T03:14:47;0.20;;;0.20;;
16531;SDS011;66872;63.142;14.482;2024-01-11T03:17:13;0.20;;;0.20;;
16531;SDS011;66872;63.142;14.482;2024-01-11T03:19:41;0.30;;;0.30;;
16531;SDS011;66872;63.142;14.482;2024-01-11T03:22:07;0.20;;;0.20;;
16531;SDS011;66872;63.142;14.482;2024-01-11T03:24:33;0.30;;;0.30;;
16531;SDS011;66872;63.142;14.482;2024-01-11T03:27:04;0.10;;;0.10;;
16531;SDS011;66872;63.142;14.482;2024-01-11T03:29:30;0.10;;;0.10;;
16531;SDS011;66872;63.142;14.482;2024-01-11T03:31:56;0.20;;;0.20;;
16531;SDS011;66872;63.142;14.482;2024-01-11T03:34:22;0.30;;;0.30;;
16531;SDS011;66872;63.142;14.482;2024-01-11T03:36:47;0.43;;;0.20;;
16531;SDS011;66872;63.142;14.482;2024-01-11T03:39:13;0.10;;;0.10;;
16531;SDS011;66872;63.142;14.482;2024-01-11T03:41:43;0.20;;;0.20;;
16531;SDS011;66872;63.142;14.482;2024-01-11T03:44:09;0.17;;;0.17;;
16531;SDS011;66872;63.142;14.482;2024-01-11T03:46:35;0.20;;;0.20;;
16531;SDS011;66872;63.142;14.482;2024-01-11T03:49:01;0.40;;;0.27;;
16531;SDS011;66872;63.142;14.482;2024-01-11T03:51:27;0.30;;;0.30;;
16531;SDS011;66872;63.142;14.482;2024-01-11T03:53:53;0.10;;;0.10;;
16531;SDS011;66872;63.142;14.482;2024-01-11T03:56:18;0.20;;;0.20;;
16531;SDS011;66872;63.142;14.482;2024-01-11T03:58:44;0.20;;;0.20;;
16531;SDS011;66872;63.142;14.482;2024-01-11T04:01:10;0.20;;;0.20;;
16531;SDS011;66872;63.142;14.482;2024-01-11T04:03:36;0.20;;;0.20;;
16531;SDS011;66872;63.142;14.482;2024-01-11T04:06:02;0.30;;;0.30;;
16531;SDS011;66872;63.142;14.482;2024-01-11T04:08:28;0.17;;;0.17;;
16531;SDS011;66872;63.142;14.482;2024-01-11T04:10:54;0.13;;;0.13;;
16531;SDS011;66872;63.142;14.482;2024-01-11T04:13:19;0.10;;;0.10;;
16531;SDS011;66872;63.142;14.482;2024-01-11T04:15:45;0.30;;;0.30;;
16531;SDS011;66872;63.142;14.482;2024-01-11T04:18:12;0.10;;;0.10;;
16531;SDS011;66872;63.142;14.482;2024-01-11T04:20:37;0.10;;;0.10;;
16531;SDS011;66872;63.142;14.482;2024-01-11T04:23:03;0.30;;;0.30;;
16531;SDS011;66872;63.142;14.482;2024-01-11T04:25:29;0.20;;;0.20;;
16531;SDS011;66872;63.142;14.482;2024-01-11T04:27:54;0.10;;;0.10;;
16531;SDS011;66872;63.142;14.482;2024-01-11T04:30:20;0.27;;;0.27;;
16531;SDS011;66872;63.142;14.482;2024-01-11T04:32:45;0.20;;;0.20;;
16531;SDS011;66872;63.142;14.482;2024-01-11T04:35:11;0.10;;;0.10;;
16531;SDS011;66872;63.142;14.482;2024-01-11T04:37:37;0.10;;;0.10;;
16531;SDS011;66872;63.142;14.482;2024-01-11T04:40:02;0.37;;;0.37;;
16531;SDS011;66872;63.142;14.482;2024-01-11T04:42:28;0.10;;;0.10;;
16531;SDS011;66872;63.142;14.482;2024-01-11T04:44:54;0.23;;;0.23;;
16531;SDS011;66872;63.142;14.482;2024-01-11T04:47:20;0.20;;;0.20;;
16531;SDS011;66872;63.142;14.482;2024-01-11T04:49:45;0.20;;;0.20;;
16531;SDS011;66872;63.142;14.482;2024-01-11T04:52:11;0.20;;;0.20;;
16531;SDS011;66872;63.142;14.482;2024-01-11T04:54:37;0.20;;;0.20;;
16531;SDS011;66872;63.142;14.482;2024-01-11T04:57:03;0.30;;;0.30;;
16531;SDS011;66872;63.142;14.482;2024-01-11T04:59:29;0.20;;;0.20;;
16531;SDS011;66872;63.142;14.482;2024-01-11T05:01:54;0.20;;;0.20;;
16531;SDS011;66872;63.142;14.482;2024-01-11T05:04:21;0.10;;;0.10;;
16531;SDS011;66872;63.142;14.482;2024-01-11T05:06:46;0.10;;;0.10;;
16531;SDS011;66872;63.142;14.482;2024-01-11T05:09:12;0.20;;;0.20;;
16531;SDS011;66872;63.142;14.482;2024-01-11T05:11:39;0.20;;;0.20;;
16531;SDS011;66872;63.142;14.482;2024-01-11T05:14:04;0.20;;;0.20;;
16531;SDS011;66872;63.142;14.482;2024-01-11T05:16:30;0.20;;;0.20;;
16531;SDS011;66872;63.142;14.482;2024-01-11T05:18:56;0.10;;;0.10;;
16531;SDS011;66872;63.142;14.482;2024-01-11T05:21:22;0.20;;;0.20;;
16531;SDS011;66872;63.142;14.482;2024-01-11T05:23:48;0.20;;;0.20;;
16531;SDS011;66872;63.142;14.482;2024-01-11T05:26:14;0.20;;;0.20;;
16531;SDS011;66872;63.142;14.482;2024-01-11T05:28:41;0.20;;;0.20;;
16531;SDS011;66872;63.142;14.482;2024-01-11T05:31:07;0.20;;;0.20;;
16531;SDS011;66872;63.142;14.482;2024-01-11T05:33:40;0.30;;;0.30;;
16531;SDS011;66872;63.142;14.482;2024-01-11T05:36:06;0.20;;;0.20;;
16531;SDS011;66872;63.142;14.482;2024-01-11T05:38:32;0.40;;;0.40;;
16531;SDS011;66872;63.142;14.482;2024-01-11T05:40:58;0.20;;;0.20;;
16531;SDS011;66872;63.142;14.482;2024-01-11T05:43:23;0.27;;;0.27;;
16531;SDS011;66872;63.142;14.482;2024-01-11T05:45:49;0.20;;;0.20;;
16531;SDS011;66872;63.142;14.482;2024-01-11T05:48:15;0.30;;;0.30;;
16531;SDS011;66872;63.142;14.482;2024-01-11T05:50:42;0.20;;;0.20;;
16531;SDS011;66872;63.142;14.482;2024-01-11T05:53:08;0.30;;;0.30;;
16531;SDS011;66872;63.142;14.482;2024-01-11T05:55:34;0.20;;;0.20;;
16531;SDS011;66872;63.142;14.482;2024-01-11T05:58:00;0.30;;;0.30;;
16531;SDS011;66872;63.142;14.482;2024-01-11T06:00:26;0.23;;;0.23;;
16531;SDS011;66872;63.142;14.482;2024-01-11T06:02:52;0.20;;;0.20;;
16531;SDS011;66872;63.142;14.482;2024-01-11T06:05:18;0.20;;;0.20;;
16531;SDS011;66872;63.142;14.482;2024-01-11T06:07:43;0.30;;;0.30;;
16531;SDS011;66872;63.142;14.482;2024-01-11T06:10:09;0.30;;;0.30;;
16531;SDS011;66872;63.142;14.482;2024-01-11T06:12:35;0.47;;;0.47;;
16531;SDS011;66872;63.142;14.482;2024-01-11T06:15:01;0.63;;;0.53;;
16531;SDS011;66872;63.142;14.482;2024-01-11T06:17:26;0.23;;;0.23;;
16531;SDS011;66872;63.142;14.482;2024-01-11T06:19:52;0.53;;;0.30;;
16531;SDS011;66872;63.142;14.482;2024-01-11T06:22:18;0.30;;;0.30;;
16531;SDS011;66872;63.142;14.482;2024-01-11T06:24:44;0.30;;;0.30;;
16531;SDS011;66872;63.142;14.482;2024-01-11T06:27:09;0.20;;;0.20;;
16531;SDS011;66872;63.142;14.482;2024-01-11T06:29:35;0.23;;;0.23;;
16531;SDS011;66872;63.142;14.482;2024-01-11T06:32:01;0.27;;;0.27;;
16531;SDS011;66872;63.142;14.482;2024-01-11T06:34:27;0.40;;;0.40;;
16531;SDS011;66872;63.142;14.482;2024-01-11T06:36:53;0.30;;;0.30;;
16531;SDS011;66872;63.142;14.482;2024-01-11T06:39:22;0.30;;;0.30;;
16531;SDS011;66872;63.142;14.482;2024-01-11T06:41:47;0.20;;;0.20;;
16531;SDS011;66872;63.142;14.482;2024-01-11T06:44:13;0.40;;;0.40;;
16531;SDS011;66872;63.142;14.482;2024-01-11T06:46:39;0.40;;;0.40;;
16531;SDS011;66872;63.142;14.482;2024-01-11T06:49:06;0.20;;;0.20;;
16531;SDS011;66872;63.142;14.482;2024-01-11T06:51:35;0.40;;;0.40;;
16531;SDS011;66872;63.142;14.482;2024-01-11T06:54:00;0.40;;;0.40;;
16531;SDS011;66872;63.142;14.482;2024-01-11T06:56:26;0.23;;;0.23;;
16531;SDS011;66872;63.142;14.482;2024-01-11T06:58:52;0.53;;;0.40;;
16531;SDS011;66872;63.142;14.482;2024-01-11T07:01:19;0.37;;;0.37;;
16531;SDS011;66872;63.142;14.482;2024-01-11T07:03:45;0.30;;;0.30;;
16531;SDS011;66872;63.142;14.482;2024-01-11T07:06:10;0.47;;;0.47;;
16531;SDS011;66872;63.142;14.482;2024-01-11T07:08:36;0.50;;;0.43;;
16531;SDS011;66872;63.142;14.482;2024-01-11T07:11:02;0.20;;;0.20;;
16531;SDS011;66872;63.142;14.482;2024-01-11T07:13:29;0.40;;;0.40;;
16531;SDS011;66872;63.142;14.482;2024-01-11T07:15:55;0.53;;;0.50;;
16531;SDS011;66872;63.142;14.482;2024-01-11T07:18:22;0.23;;;0.23;;
16531;SDS011;66872;63.142;14.482;2024-01-11T07:20:47;0.30;;;0.30;;
16531;SDS011;66872;63.142;14.482;2024-01-11T07:23:13;0.30;;;0.30;;
16531;SDS011;66872;63.142;14.482;2024-01-11T07:25:40;0.40;;;0.40;;
16531;SDS011;66872;63.142;14.482;2024-01-11T07:28:06;0.30;;;0.30;;
16531;SDS011;66872;63.142;14.482;2024-01-11T07:30:32;0.20;;;0.20;;
16531;SDS011;66872;63.142;14.482;2024-01-11T07:32:58;0.87;;;0.50;;
16531;SDS011;66872;63.142;14.482;2024-01-11T07:35:24;0.43;;;0.43;;
16531;SDS011;66872;63.142;14.482;2024-01-11T07:37:49;0.30;;;0.30;;
16531;SDS011;66872;63.142;14.482;2024-01-11T07:40:15;0.30;;;0.30;;
16531;SDS011;66872;63.142;14.482;2024-01-11T07:42:41;0.37;;;0.37;;
16531;SDS011;66872;63.142;14.482;2024-01-11T07:45:08;0.30;;;0.30;;
16531;SDS011;66872;63.142;14.482;2024-01-11T07:47:36;0.60;;;0.50;;
16531;SDS011;66872;63.142;14.482;2024-01-11T07:50:07;0.43;;;0.40;;
16531;SDS011;66872;63.142;14.482;2024-01-11T07:52:37;0.30;;;0.30;;
16531;SDS011;66872;63.142;14.482;2024-01-11T07:55:04;0.40;;;0.40;;
16531;SDS011;66872;63.142;14.482;2024-01-11T07:57:33;0.40;;;0.40;;
16531;SDS011;66872;63.142;14.482;2024-01-11T07:59:59;0.57;;;0.57;;
16531;SDS011;66872;63.142;14.482;2024-01-11T08:02:25;0.37;;;0.33;;
16531;SDS011;66872;63.142;14.482;2024-01-11T08:04:51;0.20;;;0.20;;
16531;SDS011;66872;63.142;14.482;2024-01-11T08:07:17;0.27;;;0.27;;
16531;SDS011;66872;63.142;14.482;2024-01-11T08:09:42;0.47;;;0.40;;
16531;SDS011;66872;63.142;14.482;2024-01-11T08:12:14;0.27;;;0.27;;
16531;SDS011;66872;63.142;14.482;2024-01-11T08:14:40;0.30;;;0.30;;
16531;SDS011;66872;63.142;14.482;2024-01-11T08:17:07;0.50;;;0.50;;
16531;SDS011;66872;63.142;14.482;2024-01-11T08:19:33;0.50;;;0.40;;
16531;SDS011;66872;63.142;14.482;2024-01-11T08:21:59;0.30;;;0.30;;
16531;SDS011;66872;63.142;14.482;2024-01-11T08:24:25;0.30;;;0.30;;
16531;SDS011;66872;63.142;14.482;2024-01-11T08:26:51;0.40;;;0.40;;
16531;SDS011;66872;63.142;14.482;2024-01-11T08:29:16;0.40;;;0.40;;
16531;SDS011;66872;63.142;14.482;2024-01-11T08:31:45;0.30;;;0.30;;
16531;SDS011;66872;63.142;14.482;2024-01-11T08:34:10;0.40;;;0.40;;
16531;SDS011;66872;63.142;14.482;2024-01-11T08:36:36;0.40;;;0.40;;
16531;SDS011;66872;63.142;14.482;2024-01-11T08:39:04;0.23;;;0.23;;
16531;SDS011;66872;63.142;14.482;2024-01-11T08:41:36;0.33;;;0.33;;
16531;SDS011;66872;63.142;14.482;2024-01-11T08:44:03;0.20;;;0.20;;
16531;SDS011;66872;63.142;14.482;2024-01-11T08:46:30;0.60;;;0.50;;
16531;SDS011;66872;63.142;14.482;2024-01-11T08:48:58;0.70;;;0.53;;
16531;SDS011;66872;63.142;14.482;2024-01-11T08:51:25;0.40;;;0.40;;
16531;SDS011;66872;63.142;14.482;2024-01-11T08:53:50;0.30;;;0.30;;
16531;SDS011;66872;63.142;14.482;2024-01-11T08:56:18;0.47;;;0.47;;
16531;SDS011;66872;63.142;14.482;2024-01-11T08:58:43;0.30;;;0.30;;
16531;SDS011;66872;63.142;14.482;2024-01-11T09:01:09;0.33;;;0.33;;
16531;SDS011;66872;63.142;14.482;2024-01-11T09:03:35;0.33;;;0.33;;
16531;SDS011;66872;63.142;14.482;2024-01-11T09:06:01;0.90;;;0.50;;
16531;SDS011;66872;63.142;14.482;2024-01-11T09:08:28;0.30;;;0.30;;
16531;SDS011;66872;63.142;14.482;2024-01-11T09:10:54;0.20;;;0.20;;
16531;SDS011;66872;63.142;14.482;2024-01-11T09:13:21;0.40;;;0.40;;
16531;SDS011;66872;63.142;14.482;2024-01-11T09:15:46;0.50;;;0.40;;
16531;SDS011;66872;63.142;14.482;2024-01-11T09:18:12;0.47;;;0.40;;
16531;SDS011;66872;63.142;14.482;2024-01-11T09:20:38;0.30;;;0.30;;
16531;SDS011;66872;63.142;14.482;2024-01-11T09:23:03;0.20;;;0.20;;
16531;SDS011;66872;63.142;14.482;2024-01-11T09:25:30;0.40;;;0.40;;
16531;SDS011;66872;63.142;14.482;2024-01-11T09:27:55;0.50;;;0.50;;
16531;SDS011;66872;63.142;14.482;2024-01-11T09:30:21;0.23;;;0.23;;
16531;SDS011;66872;63.142;14.482;2024-01-11T09:32:46;0.33;;;0.33;;
16531;SDS011;66872;63.142;14.482;2024-01-11T09:35:15;0.30;;;0.30;;
16531;SDS011;66872;63.142;14.482;2024-01-11T09:37:41;0.50;;;0.50;;
16531;SDS011;66872;63.142;14.482;2024-01-11T09:40:07;0.30;;;0.30;;
16531;SDS011;66872;63.142;14.482;2024-01-11T09:42:36;0.40;;;0.40;;
16531;SDS011;66872;63.142;14.482;2024-01-11T09:45:02;0.57;;;0.50;;
16531;SDS011;66872;63.142;14.482;2024-01-11T09:47:35;0.20;;;0.20;;
16531;SDS011;66872;63.142;14.482;2024-01-11T09:50:04;0.40;;;0.40;;
16531;SDS011;66872;63.142;14.482;2024-01-11T09:52:33;0.23;;;0.23;;
16531;SDS011;66872;63.142;14.482;2024-01-11T09:55:01;0.23;;;0.23;;
16531;SDS011;66872;63.142;14.482;2024-01-11T09:57:30;0.20;;;0.20;;
16531;SDS011;66872;63.142;14.482;2024-01-11T10:00:00;0.40;;;0.37;;
16531;SDS011;66872;63.142;14.482;2024-01-11T10:02:29;0.40;;;0.40;;
16531;SDS011;66872;63.142;14.482;2024-01-11T10:04:55;0.40;;;0.40;;
16531;SDS011;66872;63.142;14.482;2024-01-11T10:07:21;0.30;;;0.30;;
16531;SDS011;66872;63.142;14.482;2024-01-11T10:09:48;0.30;;;0.30;;
16531;SDS011;66872;63.142;14.482;2024-01-11T10:12:14;0.40;;;0.40;;
16531;SDS011;66872;63.142;14.482;2024-01-11T10:14:40;0.40;;;0.40;;
16531;SDS011;66872;63.142;14.482;2024-01-11T10:17:06;0.20;;;0.20;;
16531;SDS011;66872;63.142;14.482;2024-01-11T10:19:32;0.40;;;0.40;;
16531;SDS011;66872;63.142;14.482;2024-01-11T10:21:58;0.47;;;0.47;;
16531;SDS011;66872;63.142;14.482;2024-01-11T10:24:23;0.40;;;0.40;;
16531;SDS011;66872;63.142;14.482;2024-01-11T10:26:51;0.30;;;0.30;;
16531;SDS011;66872;63.142;14.482;2024-01-11T10:29:20;0.37;;;0.37;;
16531;SDS011;66872;63.142;14.482;2024-01-11T10:31:47;0.37;;;0.37;;
16531;SDS011;66872;63.142;14.482;2024-01-11T10:34:12;0.43;;;0.43;;
16531;SDS011;66872;63.142;14.482;2024-01-11T10:36:38;0.50;;;0.47;;
16531;SDS011;66872;63.142;14.482;2024-01-11T10:39:05;0.60;;;0.40;;
16531;SDS011;66872;63.142;14.482;2024-01-11T10:41:40;0.63;;;0.50;;
16531;SDS011;66872;63.142;14.482;2024-01-11T10:44:21;1.13;;;0.30;;
16531;SDS011;66872;63.142;14.482;2024-01-11T10:46:47;0.43;;;0.43;;
16531;SDS011;66872;63.142;14.482;2024-01-11T10:49:18;0.20;;;0.20;;
16531;SDS011;66872;63.142;14.482;2024-01-11T10:51:58;0.53;;;0.40;;
16531;SDS011;66872;63.142;14.482;2024-01-11T10:54:25;0.40;;;0.40;;
16531;SDS011;66872;63.142;14.482;2024-01-11T10:56:53;0.40;;;0.30;;
16531;SDS011;66872;63.142;14.482;2024-01-11T10:59:19;0.50;;;0.40;;
16531;SDS011;66872;63.142;14.482;2024-01-11T11:01:50;0.40;;;0.40;;
16531;SDS011;66872;63.142;14.482;2024-01-11T11:04:22;0.20;;;0.20;;
16531;SDS011;66872;63.142;14.482;2024-01-11T11:06:52;0.40;;;0.40;;
16531;SDS011;66872;63.142;14.482;2024-01-11T11:09:22;0.57;;;0.50;;
16531;SDS011;66872;63.142;14.482;2024-01-11T11:11:49;1.77;;;0.60;;
16531;SDS011;66872;63.142;14.482;2024-01-11T11:14:16;2.53;;;0.70;;
16531;SDS011;66872;63.142;14.482;2024-01-11T11:16:43;4.73;;;0.80;;
16531;SDS011;66872;63.142;14.482;2024-01-11T11:19:10;2.23;;;1.17;;
16531;SDS011;66872;63.142;14.482;2024-01-11T11:21:43;3.97;;;0.70;;
16531;SDS011;66872;63.142;14.482;2024-01-11T11:24:10;1.33;;;0.80;;
16531;SDS011;66872;63.142;14.482;2024-01-11T11:26:36;1.60;;;0.70;;
16531;SDS011;66872;63.142;14.482;2024-01-11T11:29:05;0.90;;;0.60;;
16531;SDS011;66872;63.142;14.482;2024-01-11T11:34:01;3.53;;;0.77;;
16531;SDS011;66872;63.142;14.482;2024-01-11T11:36:29;2.23;;;0.77;;
16531;SDS011;66872;63.142;14.482;2024-01-11T11:38:56;2.47;;;0.70;;
16531;SDS011;66872;63.142;14.482;2024-01-11T11:41:25;0.77;;;0.60;;
16531;SDS011;66872;63.142;14.482;2024-01-11T11:43:52;2.73;;;0.77;;
16531;SDS011;66872;63.142;14.482;2024-01-11T11:46:18;1.93;;;0.50;;
16531;SDS011;66872;63.142;14.482;2024-01-11T11:51:18;1.20;;;0.60;;
16531;SDS011;66872;63.142;14.482;2024-01-11T11:53:45;0.70;;;0.60;;
16531;SDS011;66872;63.142;14.482;2024-01-11T11:56:13;1.30;;;0.60;;
16531;SDS011;66872;63.142;14.482;2024-01-11T11:58:42;0.97;;;0.67;;
16531;SDS011;66872;63.142;14.482;2024-01-11T12:01:08;1.10;;;0.60;;
16531;SDS011;66872;63.142;14.482;2024-01-11T12:03:38;1.27;;;0.57;;
16531;SDS011;66872;63.142;14.482;2024-01-11T12:06:06;1.10;;;0.70;;
16531;SDS011;66872;63.142;14.482;2024-01-11T12:08:33;0.70;;;0.50;;
16531;SDS011;66872;63.142;14.482;2024-01-11T12:11:00;1.70;;;0.63;;
16531;SDS011;66872;63.142;14.482;2024-01-11T12:13:26;1.10;;;0.60;;
16531;SDS011;66872;63.142;14.482;2024-01-11T12:15:52;0.83;;;0.60;;
16531;SDS011;66872;63.142;14.482;2024-01-11T12:18:18;1.43;;;0.40;;
16531;SDS011;66872;63.142;14.482;2024-01-11T12:20:44;0.57;;;0.50;;
16531;SDS011;66872;63.142;14.482;2024-01-11T12:23:10;1.03;;;0.50;;
16531;SDS011;66872;63.142;14.482;2024-01-11T12:25:38;0.50;;;0.50;;
16531;SDS011;66872;63.142;14.482;2024-01-11T12:28:08;0.70;;;0.40;;
16531;SDS011;66872;63.142;14.482;2024-01-11T12:30:34;0.40;;;0.40;;
16531;SDS011;66872;63.142;14.482;2024-01-11T12:33:00;2.23;;;0.60;;
16531;SDS011;66872;63.142;14.482;2024-01-11T12:35:27;1.13;;;0.50;;
16531;SDS011;66872;63.142;14.482;2024-01-11T12:37:59;0.80;;;0.50;;
16531;SDS011;66872;63.142;14.482;2024-01-11T12:40:32;0.40;;;0.40;;
16531;SDS011;66872;63.142;14.482;2024-01-11T12:42:59;1.10;;;0.57;;
16531;SDS011;66872;63.142;14.482;2024-01-11T12:45:25;0.63;;;0.50;;
16531;SDS011;66872;63.142;14.482;2024-01-11T12:47:51;0.67;;;0.43;;
16531;SDS011;66872;63.142;14.482;2024-01-11T12:50:18;0.53;;;0.50;;
16531;SDS011;66872;63.142;14.482;2024-01-11T12:52:45;0.77;;;0.57;;
16531;SDS011;66872;63.142;14.482;2024-01-11T12:55:18;1.43;;;0.60;;
16531;SDS011;66872;63.142;14.482;2024-01-11T12:57:44;0.40;;;0.40;;
16531;SDS011;66872;63.142;14.482;2024-01-11T13:00:13;0.57;;;0.57;;
16531;SDS011;66872;63.142;14.482;2024-01-11T13:02:41;0.23;;;0.23;;
16531;SDS011;66872;63.142;14.482;2024-01-11T13:05:11;0.57;;;0.40;;
16531;SDS011;66872;63.142;14.482;2024-01-11T13:07:37;1.90;;;0.50;;
16531;SDS011;66872;63.142;14.482;2024-01-11T13:10:03;0.87;;;0.40;;
16531;SDS011;66872;63.142;14.482;2024-01-11T13:12:30;1.20;;;0.60;;
16531;SDS011;66872;63.142;14.482;2024-01-11T13:14:56;0.50;;;0.50;;
16531;SDS011;66872;63.142;14.482;2024-01-11T13:17:21;0.90;;;0.67;;
16531;SDS011;66872;63.142;14.482;2024-01-11T13:19:47;0.50;;;0.40;;
16531;SDS011;66872;63.142;14.482;2024-01-11T13:22:13;1.50;;;0.50;;
16531;SDS011;66872;63.142;14.482;2024-01-11T13:24:38;0.50;;;0.50;;
16531;SDS011;66872;63.142;14.482;2024-01-11T13:27:04;0.40;;;0.40;;
16531;SDS011;66872;63.142;14.482;2024-01-11T13:29:30;1.43;;;0.63;;
16531;SDS011;66872;63.142;14.482;2024-01-11T13:31:55;0.40;;;0.40;;
16531;SDS011;66872;63.142;14.482;2024-01-11T13:34:21;0.50;;;0.50;;
16531;SDS011;66872;63.142;14.482;2024-01-11T13:36:46;0.40;;;0.40;;
16531;SDS011;66872;63.142;14.482;2024-01-11T13:39:12;0.40;;;0.40;;
16531;SDS011;66872;63.142;14.482;2024-01-11T13:41:38;1.40;;;0.30;;
16531;SDS011;66872;63.142;14.482;2024-01-11T13:44:05;0.60;;;0.60;;
16531;SDS011;66872;63.142;14.482;2024-01-11T13:46:32;0.33;;;0.33;;
16531;SDS011;66872;63.142;14.482;2024-01-11T13:48:58;1.10;;;0.63;;
16531;SDS011;66872;63.142;14.482;2024-01-11T13:51:23;0.40;;;0.40;;
16531;SDS011;66872;63.142;14.482;2024-01-11T13:53:49;0.33;;;0.33;;
16531;SDS011;66872;63.142;14.482;2024-01-11T13:56:15;1.13;;;0.50;;
16531;SDS011;66872;63.142;14.482;2024-01-11T13:58:41;0.40;;;0.40;;
16531;SDS011;66872;63.142;14.482;2024-01-11T14:01:06;0.73;;;0.60;;
16531;SDS011;66872;63.142;14.482;2024-01-11T14:03:32;1.00;;;0.50;;
16531;SDS011;66872;63.142;14.482;2024-01-11T14:05:58;0.50;;;0.50;;
16531;SDS011;66872;63.142;14.482;2024-01-11T14:08:25;0.30;;;0.30;;
16531;SDS011;66872;63.142;14.482;2024-01-11T14:10:51;0.60;;;0.50;;
16531;SDS011;66872;63.142;14.482;2024-01-11T14:13:17;1.17;;;0.50;;
16531;SDS011;66872;63.142;14.482;2024-01-11T14:15:42;0.83;;;0.40;;
16531;SDS011;66872;63.142;14.482;2024-01-11T14:18:08;0.33;;;0.33;;
16531;SDS011;66872;63.142;14.482;2024-01-11T14:20:34;0.37;;;0.33;;
16531;SDS011;66872;63.142;14.482;2024-01-11T14:23:00;0.50;;;0.50;;
16531;SDS011;66872;63.142;14.482;2024-01-11T14:25:26;0.50;;;0.50;;
16531;SDS011;66872;63.142;14.482;2024-01-11T14:27:51;0.43;;;0.43;;
16531;SDS011;66872;63.142;14.482;2024-01-11T14:30:21;1.33;;;0.77;;
16531;SDS011;66872;63.142;14.482;2024-01-11T14:32:47;0.30;;;0.30;;
16531;SDS011;66872;63.142;14.482;2024-01-11T14:35:14;0.57;;;0.50;;